sensor_id;sensor_type;location;lat;lon;timestamp;P1;durP1;ratioP1;P2;durP2;ratioP2
54247;SDS011;40161;39.768;2.722;2022-12-29T00:02:10;17.17;;;10.95;;
54247;SDS011;40161;39.768;2.722;2022-12-29T00:04:36;13.43;;;9.13;;
54247;SDS011;40161;39.768;2.722;2022-12-29T00:07:02;11.93;;;7.65;;
54247;SDS011;40161;39.768;2.722;2022-12-29T00:09:29;12.75;;;8.43;;
54247;SDS011;40161;39.768;2.722;2022-12-29T00:11:56;18.88;;;11.30;;
54247;SDS011;40161;39.768;2.722;2022-12-29T00:14:21;16.80;;;10.30;;
54247;SDS011;40161;39.768;2.722;2022-12-29T00:17:05;18.85;;;11.63;;
54247;SDS011;40161;39.768;2.722;2022-12-29T00:19:31;15.15;;;9.32;;
54247;SDS011;40161;39.768;2.722;2022-12-29T00:22:15;15.60;;;8.93;;
54247;SDS011;40161;39.768;2.722;2022-12-29T00:25:00;15.30;;;8.90;;
54247;SDS011;40161;39.768;2.722;2022-12-29T00:27:26;14.18;;;8.50;;
54247;SDS011;40161;39.768;2.722;2022-12-29T00:30:12;13.20;;;8.80;;
54247;SDS011;40161;39.768;2.722;2022-12-29T00:32:57;13.65;;;8.63;;
54247;SDS011;40161;39.768;2.722;2022-12-29T00:35:45;12.38;;;8.20;;
54247;SDS011;40161;39.768;2.722;2022-12-29T00:38:17;12.98;;;8.07;;
54247;SDS011;40161;39.768;2.722;2022-12-29T00:41:01;12.65;;;8.32;;
54247;SDS011;40161;39.768;2.722;2022-12-29T00:43:45;13.43;;;8.70;;
54247;SDS011;40161;39.768;2.722;2022-12-29T00:46:29;11.00;;;6.47;;
54247;SDS011;40161;39.768;2.722;2022-12-29T00:48:56;10.77;;;6.82;;
54247;SDS011;40161;39.768;2.722;2022-12-29T00:51:40;11.10;;;6.40;;
54247;SDS011;40161;39.768;2.722;2022-12-29T00:54:05;12.60;;;6.20;;
54247;SDS011;40161;39.768;2.722;2022-12-29T00:56:31;12.20;;;6.63;;
54247;SDS011;40161;39.768;2.722;2022-12-29T00:58:59;11.60;;;6.75;;
54247;SDS011;40161;39.768;2.722;2022-12-29T01:01:32;8.75;;;4.90;;
54247;SDS011;40161;39.768;2.722;2022-12-29T01:03:59;10.00;;;4.93;;
54247;SDS011;40161;39.768;2.722;2022-12-29T01:06:24;10.13;;;5.80;;
54247;SDS011;40161;39.768;2.722;2022-12-29T01:08:50;11.55;;;6.30;;
54247;SDS011;40161;39.768;2.722;2022-12-29T01:11:37;13.05;;;5.95;;
54247;SDS011;40161;39.768;2.722;2022-12-29T01:14:03;11.25;;;6.25;;
54247;SDS011;40161;39.768;2.722;2022-12-29T01:16:29;7.43;;;4.65;;
54247;SDS011;40161;39.768;2.722;2022-12-29T01:18:54;9.48;;;4.70;;
54247;SDS011;40161;39.768;2.722;2022-12-29T01:21:20;9.73;;;5.32;;
54247;SDS011;40161;39.768;2.722;2022-12-29T01:23:45;9.68;;;5.38;;
54247;SDS011;40161;39.768;2.722;2022-12-29T01:26:15;11.50;;;5.72;;
54247;SDS011;40161;39.768;2.722;2022-12-29T01:28:42;9.00;;;5.20;;
54247;SDS011;40161;39.768;2.722;2022-12-29T01:31:08;8.13;;;5.40;;
54247;SDS011;40161;39.768;2.722;2022-12-29T01:33:34;9.15;;;4.93;;
54247;SDS011;40161;39.768;2.722;2022-12-29T01:36:01;9.50;;;5.30;;
54247;SDS011;40161;39.768;2.722;2022-12-29T01:38:27;9.50;;;5.43;;
54247;SDS011;40161;39.768;2.722;2022-12-29T01:40:52;9.25;;;5.35;;
54247;SDS011;40161;39.768;2.722;2022-12-29T01:43:18;11.13;;;5.25;;
54247;SDS011;40161;39.768;2.722;2022-12-29T01:45:44;10.05;;;5.45;;
54247;SDS011;40161;39.768;2.722;2022-12-29T01:48:16;11.93;;;6.00;;
54247;SDS011;40161;39.768;2.722;2022-12-29T01:50:50;11.60;;;6.45;;
54247;SDS011;40161;39.768;2.722;2022-12-29T01:53:19;12.40;;;6.72;;
54247;SDS011;40161;39.768;2.722;2022-12-29T01:55:52;11.35;;;7.10;;
54247;SDS011;40161;39.768;2.722;2022-12-29T01:58:24;12.18;;;5.60;;
54247;SDS011;40161;39.768;2.722;2022-12-29T02:00:54;10.82;;;5.60;;
54247;SDS011;40161;39.768;2.722;2022-12-29T02:03:20;11.85;;;6.35;;
54247;SDS011;40161;39.768;2.722;2022-12-29T02:08:47;9.43;;;4.70;;
54247;SDS011;40161;39.768;2.722;2022-12-29T02:11:17;9.43;;;4.35;;
54247;SDS011;40161;39.768;2.722;2022-12-29T02:13:44;7.10;;;4.18;;
54247;SDS011;40161;39.768;2.722;2022-12-29T02:19:03;6.88;;;3.92;;
54247;SDS011;40161;39.768;2.722;2022-12-29T02:37:58;8.23;;;3.97;;
54247;SDS011;40161;39.768;2.722;2022-12-29T02:43:14;7.18;;;3.83;;
54247;SDS011;40161;39.768;2.722;2022-12-29T02:46:03;7.82;;;3.85;;
54247;SDS011;40161;39.768;2.722;2022-12-29T02:51:23;7.57;;;3.67;;
54247;SDS011;40161;39.768;2.722;2022-12-29T02:53:52;10.23;;;4.22;;
54247;SDS011;40161;39.768;2.722;2022-12-29T02:56:37;7.40;;;4.03;;
54247;SDS011;40161;39.768;2.722;2022-12-29T02:59:03;6.68;;;3.53;;
54247;SDS011;40161;39.768;2.722;2022-12-29T03:04:18;11.03;;;3.43;;
54247;SDS011;40161;39.768;2.722;2022-12-29T03:07:02;7.43;;;4.25;;
54247;SDS011;40161;39.768;2.722;2022-12-29T03:16:04;5.85;;;2.80;;
54247;SDS011;40161;39.768;2.722;2022-12-29T03:21:18;5.07;;;2.40;;
54247;SDS011;40161;39.768;2.722;2022-12-29T03:24:14;15.18;;;7.72;;
54247;SDS011;40161;39.768;2.722;2022-12-29T03:26:42;20.95;;;10.85;;
54247;SDS011;40161;39.768;2.722;2022-12-29T03:29:10;13.15;;;5.65;;
54247;SDS011;40161;39.768;2.722;2022-12-29T03:31:37;10.05;;;5.20;;
54247;SDS011;40161;39.768;2.722;2022-12-29T03:34:04;10.00;;;4.78;;
54247;SDS011;40161;39.768;2.722;2022-12-29T03:36:32;15.07;;;7.47;;
54247;SDS011;40161;39.768;2.722;2022-12-29T03:39:23;11.88;;;5.75;;
54247;SDS011;40161;39.768;2.722;2022-12-29T03:41:50;5.43;;;2.67;;
54247;SDS011;40161;39.768;2.722;2022-12-29T03:44:33;9.75;;;4.93;;
54247;SDS011;40161;39.768;2.722;2022-12-29T03:47:01;8.73;;;4.43;;
54247;SDS011;40161;39.768;2.722;2022-12-29T03:49:27;7.60;;;3.97;;
54247;SDS011;40161;39.768;2.722;2022-12-29T03:51:53;9.27;;;3.88;;
54247;SDS011;40161;39.768;2.722;2022-12-29T03:54:18;9.88;;;5.25;;
54247;SDS011;40161;39.768;2.722;2022-12-29T03:56:44;10.63;;;4.57;;
54247;SDS011;40161;39.768;2.722;2022-12-29T03:59:09;9.00;;;4.82;;
54247;SDS011;40161;39.768;2.722;2022-12-29T04:01:35;8.13;;;3.97;;
54247;SDS011;40161;39.768;2.722;2022-12-29T04:04:00;7.65;;;4.43;;
54247;SDS011;40161;39.768;2.722;2022-12-29T04:06:26;5.72;;;3.35;;
54247;SDS011;40161;39.768;2.722;2022-12-29T04:08:51;8.48;;;4.18;;
54247;SDS011;40161;39.768;2.722;2022-12-29T04:11:17;9.10;;;4.32;;
54247;SDS011;40161;39.768;2.722;2022-12-29T04:13:42;7.72;;;3.78;;
54247;SDS011;40161;39.768;2.722;2022-12-29T04:16:08;10.20;;;3.70;;
54247;SDS011;40161;39.768;2.722;2022-12-29T04:18:33;7.72;;;4.05;;
54247;SDS011;40161;39.768;2.722;2022-12-29T04:20:59;6.68;;;3.83;;
54247;SDS011;40161;39.768;2.722;2022-12-29T04:23:25;9.95;;;5.30;;
54247;SDS011;40161;39.768;2.722;2022-12-29T04:25:58;6.97;;;4.28;;
54247;SDS011;40161;39.768;2.722;2022-12-29T04:28:24;6.30;;;3.50;;
54247;SDS011;40161;39.768;2.722;2022-12-29T04:30:50;8.73;;;3.30;;
54247;SDS011;40161;39.768;2.722;2022-12-29T04:33:16;7.40;;;2.95;;
54247;SDS011;40161;39.768;2.722;2022-12-29T04:35:42;5.38;;;2.55;;
54247;SDS011;40161;39.768;2.722;2022-12-29T04:38:08;8.73;;;3.20;;
54247;SDS011;40161;39.768;2.722;2022-12-29T04:40:34;7.43;;;2.67;;
54247;SDS011;40161;39.768;2.722;2022-12-29T04:43:00;8.57;;;3.08;;
54247;SDS011;40161;39.768;2.722;2022-12-29T04:45:26;5.38;;;2.92;;
54247;SDS011;40161;39.768;2.722;2022-12-29T04:47:51;6.30;;;3.08;;
54247;SDS011;40161;39.768;2.722;2022-12-29T04:50:17;6.85;;;3.60;;
54247;SDS011;40161;39.768;2.722;2022-12-29T04:52:43;5.63;;;3.35;;
54247;SDS011;40161;39.768;2.722;2022-12-29T04:55:08;4.85;;;2.83;;
54247;SDS011;40161;39.768;2.722;2022-12-29T04:57:34;8.13;;;4.18;;
54247;SDS011;40161;39.768;2.722;2022-12-29T04:59:59;7.13;;;3.67;;
54247;SDS011;40161;39.768;2.722;2022-12-29T05:02:25;8.68;;;3.88;;
54247;SDS011;40161;39.768;2.722;2022-12-29T05:04:50;6.93;;;3.33;;
54247;SDS011;40161;39.768;2.722;2022-12-29T05:07:16;7.75;;;3.50;;
54247;SDS011;40161;39.768;2.722;2022-12-29T05:09:42;8.98;;;2.67;;
54247;SDS011;40161;39.768;2.722;2022-12-29T05:12:07;8.40;;;3.65;;
54247;SDS011;40161;39.768;2.722;2022-12-29T05:14:33;6.88;;;3.10;;
54247;SDS011;40161;39.768;2.722;2022-12-29T05:16:58;7.65;;;3.55;;
54247;SDS011;40161;39.768;2.722;2022-12-29T05:19:24;5.35;;;2.65;;
54247;SDS011;40161;39.768;2.722;2022-12-29T05:21:49;6.00;;;2.78;;
54247;SDS011;40161;39.768;2.722;2022-12-29T05:24:15;8.52;;;3.20;;
54247;SDS011;40161;39.768;2.722;2022-12-29T05:26:41;6.93;;;2.63;;
54247;SDS011;40161;39.768;2.722;2022-12-29T05:29:06;8.15;;;2.90;;
54247;SDS011;40161;39.768;2.722;2022-12-29T05:31:32;7.53;;;3.00;;
54247;SDS011;40161;39.768;2.722;2022-12-29T05:33:58;7.05;;;3.15;;
54247;SDS011;40161;39.768;2.722;2022-12-29T05:36:24;7.55;;;3.10;;
54247;SDS011;40161;39.768;2.722;2022-12-29T05:38:49;7.13;;;3.22;;
54247;SDS011;40161;39.768;2.722;2022-12-29T05:41:15;6.47;;;3.28;;
54247;SDS011;40161;39.768;2.722;2022-12-29T05:43:41;6.15;;;3.22;;
54247;SDS011;40161;39.768;2.722;2022-12-29T05:46:06;5.93;;;3.22;;
54247;SDS011;40161;39.768;2.722;2022-12-29T05:48:32;7.65;;;3.20;;
54247;SDS011;40161;39.768;2.722;2022-12-29T05:50:57;6.35;;;4.07;;
54247;SDS011;40161;39.768;2.722;2022-12-29T05:53:23;7.22;;;3.38;;
54247;SDS011;40161;39.768;2.722;2022-12-29T05:55:48;6.03;;;2.45;;
54247;SDS011;40161;39.768;2.722;2022-12-29T05:58:15;6.18;;;3.17;;
54247;SDS011;40161;39.768;2.722;2022-12-29T06:00:41;5.43;;;2.50;;
54247;SDS011;40161;39.768;2.722;2022-12-29T06:03:06;5.22;;;2.70;;
54247;SDS011;40161;39.768;2.722;2022-12-29T06:05:32;6.07;;;2.72;;
54247;SDS011;40161;39.768;2.722;2022-12-29T06:07:57;4.60;;;2.22;;
54247;SDS011;40161;39.768;2.722;2022-12-29T06:10:23;5.15;;;2.45;;
54247;SDS011;40161;39.768;2.722;2022-12-29T06:12:48;5.30;;;2.05;;
54247;SDS011;40161;39.768;2.722;2022-12-29T06:15:14;5.85;;;2.35;;
54247;SDS011;40161;39.768;2.722;2022-12-29T06:17:40;5.35;;;2.35;;
54247;SDS011;40161;39.768;2.722;2022-12-29T06:20:06;5.10;;;2.78;;
54247;SDS011;40161;39.768;2.722;2022-12-29T06:22:33;8.50;;;3.00;;
54247;SDS011;40161;39.768;2.722;2022-12-29T06:24:58;9.63;;;3.10;;
54247;SDS011;40161;39.768;2.722;2022-12-29T06:27:24;5.47;;;2.60;;
54247;SDS011;40161;39.768;2.722;2022-12-29T06:29:49;6.25;;;2.72;;
54247;SDS011;40161;39.768;2.722;2022-12-29T06:32:15;7.63;;;3.20;;
54247;SDS011;40161;39.768;2.722;2022-12-29T06:34:41;5.35;;;2.95;;
54247;SDS011;40161;39.768;2.722;2022-12-29T06:37:07;7.07;;;2.60;;
54247;SDS011;40161;39.768;2.722;2022-12-29T06:39:33;7.80;;;2.85;;
54247;SDS011;40161;39.768;2.722;2022-12-29T06:41:58;5.70;;;2.05;;
54247;SDS011;40161;39.768;2.722;2022-12-29T06:44:24;7.75;;;2.50;;
54247;SDS011;40161;39.768;2.722;2022-12-29T06:46:49;5.50;;;2.50;;
54247;SDS011;40161;39.768;2.722;2022-12-29T06:49:15;5.82;;;2.50;;
54247;SDS011;40161;39.768;2.722;2022-12-29T06:51:41;6.32;;;3.47;;
54247;SDS011;40161;39.768;2.722;2022-12-29T06:54:07;9.30;;;4.25;;
54247;SDS011;40161;39.768;2.722;2022-12-29T06:56:32;10.55;;;4.90;;
54247;SDS011;40161;39.768;2.722;2022-12-29T06:58:58;11.23;;;5.07;;
54247;SDS011;40161;39.768;2.722;2022-12-29T07:01:26;6.88;;;3.58;;
54247;SDS011;40161;39.768;2.722;2022-12-29T07:03:51;6.90;;;2.58;;
54247;SDS011;40161;39.768;2.722;2022-12-29T07:06:17;5.80;;;2.42;;
54247;SDS011;40161;39.768;2.722;2022-12-29T07:08:43;9.15;;;3.47;;
54247;SDS011;40161;39.768;2.722;2022-12-29T07:11:08;8.23;;;3.53;;
54247;SDS011;40161;39.768;2.722;2022-12-29T07:13:34;10.63;;;3.70;;
54247;SDS011;40161;39.768;2.722;2022-12-29T07:16:04;7.90;;;3.38;;
54247;SDS011;40161;39.768;2.722;2022-12-29T07:18:30;6.68;;;3.42;;
54247;SDS011;40161;39.768;2.722;2022-12-29T07:20:56;8.60;;;5.38;;
54247;SDS011;40161;39.768;2.722;2022-12-29T07:23:21;9.15;;;3.92;;
54247;SDS011;40161;39.768;2.722;2022-12-29T07:25:47;13.23;;;6.80;;
54247;SDS011;40161;39.768;2.722;2022-12-29T07:28:12;15.23;;;7.88;;
54247;SDS011;40161;39.768;2.722;2022-12-29T07:30:39;10.70;;;6.70;;
54247;SDS011;40161;39.768;2.722;2022-12-29T07:33:05;11.27;;;6.03;;
54247;SDS011;40161;39.768;2.722;2022-12-29T07:35:30;13.00;;;7.00;;
54247;SDS011;40161;39.768;2.722;2022-12-29T07:37:56;14.20;;;6.55;;
54247;SDS011;40161;39.768;2.722;2022-12-29T07:40:21;13.18;;;7.28;;
54247;SDS011;40161;39.768;2.722;2022-12-29T07:42:47;17.30;;;8.15;;
54247;SDS011;40161;39.768;2.722;2022-12-29T07:45:12;16.55;;;8.00;;
54247;SDS011;40161;39.768;2.722;2022-12-29T07:47:38;22.17;;;8.27;;
54247;SDS011;40161;39.768;2.722;2022-12-29T07:50:04;10.63;;;5.25;;
54247;SDS011;40161;39.768;2.722;2022-12-29T07:52:30;12.45;;;7.93;;
54247;SDS011;40161;39.768;2.722;2022-12-29T07:54:55;18.33;;;9.10;;
54247;SDS011;40161;39.768;2.722;2022-12-29T07:57:21;13.73;;;7.85;;
54247;SDS011;40161;39.768;2.722;2022-12-29T07:59:46;18.77;;;8.63;;
54247;SDS011;40161;39.768;2.722;2022-12-29T08:02:12;14.40;;;6.60;;
54247;SDS011;40161;39.768;2.722;2022-12-29T08:04:37;14.35;;;6.60;;
54247;SDS011;40161;39.768;2.722;2022-12-29T08:07:03;13.77;;;8.57;;
54247;SDS011;40161;39.768;2.722;2022-12-29T08:09:29;14.27;;;7.70;;
54247;SDS011;40161;39.768;2.722;2022-12-29T08:11:54;13.40;;;7.50;;
54247;SDS011;40161;39.768;2.722;2022-12-29T08:14:20;13.27;;;7.97;;
54247;SDS011;40161;39.768;2.722;2022-12-29T08:16:45;18.48;;;10.57;;
54247;SDS011;40161;39.768;2.722;2022-12-29T08:19:12;14.18;;;9.30;;
54247;SDS011;40161;39.768;2.722;2022-12-29T08:21:37;19.80;;;10.52;;
54247;SDS011;40161;39.768;2.722;2022-12-29T08:24:03;23.95;;;11.48;;
54247;SDS011;40161;39.768;2.722;2022-12-29T08:26:29;20.02;;;11.60;;
54247;SDS011;40161;39.768;2.722;2022-12-29T08:28:55;21.77;;;12.27;;
54247;SDS011;40161;39.768;2.722;2022-12-29T08:31:21;21.27;;;12.02;;
54247;SDS011;40161;39.768;2.722;2022-12-29T08:33:47;19.88;;;10.77;;
54247;SDS011;40161;39.768;2.722;2022-12-29T08:36:13;24.00;;;11.95;;
54247;SDS011;40161;39.768;2.722;2022-12-29T08:38:39;28.30;;;14.48;;
54247;SDS011;40161;39.768;2.722;2022-12-29T08:41:04;21.58;;;13.98;;
54247;SDS011;40161;39.768;2.722;2022-12-29T08:43:30;28.20;;;16.90;;
54247;SDS011;40161;39.768;2.722;2022-12-29T08:45:57;26.33;;;16.20;;
54247;SDS011;40161;39.768;2.722;2022-12-29T08:48:23;30.10;;;16.65;;
54247;SDS011;40161;39.768;2.722;2022-12-29T08:50:48;66.85;;;37.40;;
54247;SDS011;40161;39.768;2.722;2022-12-29T08:53:15;45.50;;;27.10;;
54247;SDS011;40161;39.768;2.722;2022-12-29T08:55:40;33.65;;;21.98;;
54247;SDS011;40161;39.768;2.722;2022-12-29T08:58:06;29.15;;;19.88;;
54247;SDS011;40161;39.768;2.722;2022-12-29T09:00:31;27.25;;;17.95;;
54247;SDS011;40161;39.768;2.722;2022-12-29T09:02:57;31.73;;;21.05;;
54247;SDS011;40161;39.768;2.722;2022-12-29T09:05:23;47.38;;;27.77;;
54247;SDS011;40161;39.768;2.722;2022-12-29T09:07:49;35.83;;;22.95;;
54247;SDS011;40161;39.768;2.722;2022-12-29T09:10:14;37.75;;;23.60;;
54247;SDS011;40161;39.768;2.722;2022-12-29T09:12:40;35.38;;;22.50;;
54247;SDS011;40161;39.768;2.722;2022-12-29T09:15:06;32.00;;;20.55;;
54247;SDS011;40161;39.768;2.722;2022-12-29T09:17:33;32.38;;;21.52;;
54247;SDS011;40161;39.768;2.722;2022-12-29T09:20:20;37.47;;;23.63;;
54247;SDS011;40161;39.768;2.722;2022-12-29T09:22:46;34.53;;;23.50;;
54247;SDS011;40161;39.768;2.722;2022-12-29T09:25:12;34.70;;;21.63;;
54247;SDS011;40161;39.768;2.722;2022-12-29T09:27:39;35.53;;;22.58;;
54247;SDS011;40161;39.768;2.722;2022-12-29T09:30:05;34.65;;;23.20;;
54247;SDS011;40161;39.768;2.722;2022-12-29T09:32:34;35.70;;;21.80;;
54247;SDS011;40161;39.768;2.722;2022-12-29T09:35:00;38.85;;;24.42;;
54247;SDS011;40161;39.768;2.722;2022-12-29T09:37:26;38.83;;;24.30;;
54247;SDS011;40161;39.768;2.722;2022-12-29T09:39:52;36.55;;;23.58;;
54247;SDS011;40161;39.768;2.722;2022-12-29T09:45:40;34.70;;;21.45;;
54247;SDS011;40161;39.768;2.722;2022-12-29T09:48:12;36.08;;;23.85;;
54247;SDS011;40161;39.768;2.722;2022-12-29T09:50:44;35.25;;;23.80;;
54247;SDS011;40161;39.768;2.722;2022-12-29T09:55:47;39.05;;;24.80;;
54247;SDS011;40161;39.768;2.722;2022-12-29T09:58:22;39.00;;;26.48;;
54247;SDS011;40161;39.768;2.722;2022-12-29T10:00:52;40.65;;;28.70;;
54247;SDS011;40161;39.768;2.722;2022-12-29T10:03:24;41.33;;;28.40;;
54247;SDS011;40161;39.768;2.722;2022-12-29T10:19:47;33.58;;;22.35;;
54247;SDS011;40161;39.768;2.722;2022-12-29T10:24:46;34.05;;;20.95;;
54247;SDS011;40161;39.768;2.722;2022-12-29T10:27:13;29.67;;;18.30;;
54247;SDS011;40161;39.768;2.722;2022-12-29T10:29:48;25.23;;;16.52;;
54247;SDS011;40161;39.768;2.722;2022-12-29T10:35:12;26.25;;;15.88;;
54247;SDS011;40161;39.768;2.722;2022-12-29T10:43:26;22.30;;;13.95;;
54247;SDS011;40161;39.768;2.722;2022-12-29T10:45:53;23.27;;;13.07;;
54247;SDS011;40161;39.768;2.722;2022-12-29T10:48:24;29.98;;;16.55;;
54247;SDS011;40161;39.768;2.722;2022-12-29T10:50:53;223.10;;;103.10;;
54247;SDS011;40161;39.768;2.722;2022-12-29T10:53:23;159.38;;;85.15;;
54247;SDS011;40161;39.768;2.722;2022-12-29T10:55:54;63.05;;;34.60;;
54247;SDS011;40161;39.768;2.722;2022-12-29T10:58:20;31.08;;;18.58;;
54247;SDS011;40161;39.768;2.722;2022-12-29T11:00:49;26.45;;;15.38;;
54247;SDS011;40161;39.768;2.722;2022-12-29T11:08:50;24.10;;;14.35;;
54247;SDS011;40161;39.768;2.722;2022-12-29T11:11:23;19.27;;;12.27;;
54247;SDS011;40161;39.768;2.722;2022-12-29T11:13:58;28.70;;;15.93;;
54247;SDS011;40161;39.768;2.722;2022-12-29T11:16:33;20.63;;;11.02;;
54247;SDS011;40161;39.768;2.722;2022-12-29T11:19:00;19.30;;;10.40;;
54247;SDS011;40161;39.768;2.722;2022-12-29T11:21:36;16.15;;;9.80;;
54247;SDS011;40161;39.768;2.722;2022-12-29T11:26:56;13.70;;;7.32;;
54247;SDS011;40161;39.768;2.722;2022-12-29T11:29:40;14.63;;;7.85;;
54247;SDS011;40161;39.768;2.722;2022-12-29T11:32:26;13.63;;;7.53;;
54247;SDS011;40161;39.768;2.722;2022-12-29T11:34:55;10.95;;;5.38;;
54247;SDS011;40161;39.768;2.722;2022-12-29T11:37:25;10.50;;;4.28;;
54247;SDS011;40161;39.768;2.722;2022-12-29T11:39:56;9.88;;;3.75;;
54247;SDS011;40161;39.768;2.722;2022-12-29T11:42:41;9.63;;;4.70;;
54247;SDS011;40161;39.768;2.722;2022-12-29T11:45:27;28.23;;;13.23;;
54247;SDS011;40161;39.768;2.722;2022-12-29T11:47:59;15.63;;;8.00;;
54247;SDS011;40161;39.768;2.722;2022-12-29T11:50:32;17.08;;;7.28;;
54247;SDS011;40161;39.768;2.722;2022-12-29T11:53:01;10.70;;;3.38;;
54247;SDS011;40161;39.768;2.722;2022-12-29T11:55:30;6.57;;;2.10;;
54247;SDS011;40161;39.768;2.722;2022-12-29T11:57:57;5.40;;;1.42;;
54247;SDS011;40161;39.768;2.722;2022-12-29T12:00:27;4.00;;;1.25;;
54247;SDS011;40161;39.768;2.722;2022-12-29T12:02:56;6.82;;;1.60;;
54247;SDS011;40161;39.768;2.722;2022-12-29T12:05:46;4.85;;;1.30;;
54247;SDS011;40161;39.768;2.722;2022-12-29T12:11:12;6.38;;;1.67;;
54247;SDS011;40161;39.768;2.722;2022-12-29T12:13:53;3.63;;;1.55;;
54247;SDS011;40161;39.768;2.722;2022-12-29T12:16:22;5.15;;;1.98;;
54247;SDS011;40161;39.768;2.722;2022-12-29T12:18:55;6.90;;;1.90;;
54247;SDS011;40161;39.768;2.722;2022-12-29T12:21:29;7.57;;;2.78;;
54247;SDS011;40161;39.768;2.722;2022-12-29T12:26:35;8.85;;;3.67;;
54247;SDS011;40161;39.768;2.722;2022-12-29T12:29:10;7.10;;;2.50;;
54247;SDS011;40161;39.768;2.722;2022-12-29T12:31:57;5.43;;;1.50;;
54247;SDS011;40161;39.768;2.722;2022-12-29T12:34:30;5.18;;;1.90;;
54247;SDS011;40161;39.768;2.722;2022-12-29T12:40:30;5.35;;;2.40;;
54247;SDS011;40161;39.768;2.722;2022-12-29T12:54:38;5.22;;;1.98;;
54247;SDS011;40161;39.768;2.722;2022-12-29T12:56:48;4.35;;;1.55;;
54247;SDS011;40161;39.768;2.722;2022-12-29T13:19:40;9.02;;;3.47;;
54247;SDS011;40161;39.768;2.722;2022-12-29T13:30:10;12.55;;;4.85;;
54247;SDS011;40161;39.768;2.722;2022-12-29T13:32:48;6.18;;;2.47;;
54247;SDS011;40161;39.768;2.722;2022-12-29T13:40:59;7.05;;;1.85;;
54247;SDS011;40161;39.768;2.722;2022-12-29T13:43:29;2.85;;;1.20;;
54247;SDS011;40161;39.768;2.722;2022-12-29T13:46:00;3.63;;;1.42;;
54247;SDS011;40161;39.768;2.722;2022-12-29T13:51:23;4.70;;;2.00;;
54247;SDS011;40161;39.768;2.722;2022-12-29T13:54:10;8.27;;;1.60;;
54247;SDS011;40161;39.768;2.722;2022-12-29T13:56:52;6.75;;;1.30;;
54247;SDS011;40161;39.768;2.722;2022-12-29T14:00:02;6.03;;;1.40;;
54247;SDS011;40161;39.768;2.722;2022-12-29T14:08:01;6.03;;;1.25;;
54247;SDS011;40161;39.768;2.722;2022-12-29T14:10:33;5.80;;;1.55;;
54247;SDS011;40161;39.768;2.722;2022-12-29T14:15:31;4.68;;;1.42;;
54247;SDS011;40161;39.768;2.722;2022-12-29T14:18:03;4.05;;;1.45;;
54247;SDS011;40161;39.768;2.722;2022-12-29T14:20:35;5.88;;;1.52;;
54247;SDS011;40161;39.768;2.722;2022-12-29T14:28:27;5.93;;;1.15;;
54247;SDS011;40161;39.768;2.722;2022-12-29T14:30:55;4.95;;;1.20;;
54247;SDS011;40161;39.768;2.722;2022-12-29T14:33:23;5.15;;;1.33;;
54247;SDS011;40161;39.768;2.722;2022-12-29T14:35:53;5.03;;;1.30;;
54247;SDS011;40161;39.768;2.722;2022-12-29T14:38:21;4.95;;;1.40;;
54247;SDS011;40161;39.768;2.722;2022-12-29T14:40:48;6.25;;;1.52;;
54247;SDS011;40161;39.768;2.722;2022-12-29T14:43:20;5.63;;;1.58;;
54247;SDS011;40161;39.768;2.722;2022-12-29T14:45:52;7.00;;;1.90;;
54247;SDS011;40161;39.768;2.722;2022-12-29T14:48:38;7.75;;;1.63;;
54247;SDS011;40161;39.768;2.722;2022-12-29T14:51:17;6.75;;;1.38;;
54247;SDS011;40161;39.768;2.722;2022-12-29T14:57:04;7.65;;;1.90;;
54247;SDS011;40161;39.768;2.722;2022-12-29T14:59:34;6.88;;;1.70;;
54247;SDS011;40161;39.768;2.722;2022-12-29T15:02:04;5.78;;;1.60;;
54247;SDS011;40161;39.768;2.722;2022-12-29T15:04:44;6.07;;;3.10;;
54247;SDS011;40161;39.768;2.722;2022-12-29T15:07:11;7.30;;;1.85;;
54247;SDS011;40161;39.768;2.722;2022-12-29T15:09:50;7.72;;;2.60;;
54247;SDS011;40161;39.768;2.722;2022-12-29T15:15:19;5.70;;;1.70;;
54247;SDS011;40161;39.768;2.722;2022-12-29T15:17:49;8.35;;;1.73;;
54247;SDS011;40161;39.768;2.722;2022-12-29T15:20:26;5.07;;;1.83;;
54247;SDS011;40161;39.768;2.722;2022-12-29T15:22:55;4.72;;;1.08;;
54247;SDS011;40161;39.768;2.722;2022-12-29T15:25:28;6.47;;;2.00;;
54247;SDS011;40161;39.768;2.722;2022-12-29T15:27:58;6.35;;;1.70;;
54247;SDS011;40161;39.768;2.722;2022-12-29T15:30:27;14.85;;;7.60;;
54247;SDS011;40161;39.768;2.722;2022-12-29T15:32:54;14.48;;;7.50;;
54247;SDS011;40161;39.768;2.722;2022-12-29T15:37:53;8.82;;;4.25;;
54247;SDS011;40161;39.768;2.722;2022-12-29T15:40:32;7.32;;;3.30;;
54247;SDS011;40161;39.768;2.722;2022-12-29T15:45:35;6.10;;;2.70;;
54247;SDS011;40161;39.768;2.722;2022-12-29T15:48:01;5.88;;;3.03;;
54247;SDS011;40161;39.768;2.722;2022-12-29T15:50:29;11.50;;;3.63;;
54247;SDS011;40161;39.768;2.722;2022-12-29T15:52:56;7.50;;;2.78;;
54247;SDS011;40161;39.768;2.722;2022-12-29T15:55:31;7.43;;;2.83;;
54247;SDS011;40161;39.768;2.722;2022-12-29T15:58:01;9.43;;;3.28;;
54247;SDS011;40161;39.768;2.722;2022-12-29T16:00:32;9.00;;;2.60;;
54247;SDS011;40161;39.768;2.722;2022-12-29T16:03:02;10.02;;;3.25;;
54247;SDS011;40161;39.768;2.722;2022-12-29T16:05:37;9.07;;;2.22;;
54247;SDS011;40161;39.768;2.722;2022-12-29T16:08:20;5.80;;;1.50;;
54247;SDS011;40161;39.768;2.722;2022-12-29T16:10:52;6.07;;;2.40;;
54247;SDS011;40161;39.768;2.722;2022-12-29T16:13:31;6.78;;;2.20;;
54247;SDS011;40161;39.768;2.722;2022-12-29T16:16:08;6.85;;;3.10;;
54247;SDS011;40161;39.768;2.722;2022-12-29T16:18:41;6.40;;;3.00;;
54247;SDS011;40161;39.768;2.722;2022-12-29T16:21:14;6.50;;;3.00;;
54247;SDS011;40161;39.768;2.722;2022-12-29T16:23:45;12.45;;;7.63;;
54247;SDS011;40161;39.768;2.722;2022-12-29T16:26:18;7.32;;;3.20;;
54247;SDS011;40161;39.768;2.722;2022-12-29T16:28:50;4.15;;;1.70;;
54247;SDS011;40161;39.768;2.722;2022-12-29T16:31:24;5.70;;;1.70;;
54247;SDS011;40161;39.768;2.722;2022-12-29T16:33:57;6.75;;;2.13;;
54247;SDS011;40161;39.768;2.722;2022-12-29T16:36:24;21.95;;;11.00;;
54247;SDS011;40161;39.768;2.722;2022-12-29T16:39:02;12.10;;;4.32;;
54247;SDS011;40161;39.768;2.722;2022-12-29T16:41:37;7.13;;;2.20;;
54247;SDS011;40161;39.768;2.722;2022-12-29T16:47:03;4.63;;;2.20;;
54247;SDS011;40161;39.768;2.722;2022-12-29T16:49:36;6.22;;;1.50;;
54247;SDS011;40161;39.768;2.722;2022-12-29T16:52:11;5.78;;;2.30;;
54247;SDS011;40161;39.768;2.722;2022-12-29T16:54:54;4.60;;;1.50;;
54247;SDS011;40161;39.768;2.722;2022-12-29T16:57:26;10.68;;;3.20;;
54247;SDS011;40161;39.768;2.722;2022-12-29T16:59:55;10.80;;;4.07;;
54247;SDS011;40161;39.768;2.722;2022-12-29T17:02:25;6.20;;;2.97;;
54247;SDS011;40161;39.768;2.722;2022-12-29T17:04:54;14.00;;;7.63;;
54247;SDS011;40161;39.768;2.722;2022-12-29T17:07:20;7.18;;;2.03;;
54247;SDS011;40161;39.768;2.722;2022-12-29T17:09:48;8.68;;;1.70;;
54247;SDS011;40161;39.768;2.722;2022-12-29T17:12:16;5.13;;;1.63;;
54247;SDS011;40161;39.768;2.722;2022-12-29T17:14:49;6.95;;;1.70;;
54247;SDS011;40161;39.768;2.722;2022-12-29T17:19:50;5.28;;;2.33;;
54247;SDS011;40161;39.768;2.722;2022-12-29T17:22:20;9.90;;;3.28;;
54247;SDS011;40161;39.768;2.722;2022-12-29T17:24:49;8.70;;;3.08;;
54247;SDS011;40161;39.768;2.722;2022-12-29T17:27:23;9.27;;;4.43;;
54247;SDS011;40161;39.768;2.722;2022-12-29T17:29:52;10.70;;;5.38;;
54247;SDS011;40161;39.768;2.722;2022-12-29T17:32:21;6.72;;;2.90;;
54247;SDS011;40161;39.768;2.722;2022-12-29T17:34:46;26.38;;;16.33;;
54247;SDS011;40161;39.768;2.722;2022-12-29T17:39:48;9.60;;;4.45;;
54247;SDS011;40161;39.768;2.722;2022-12-29T17:42:14;8.80;;;4.50;;